Time;durP1;ratioP1;P1;durP2;ratioP2;P2;SDS_P1;SDS_P2;PMS_P1;PMS_P2;Temp;Humidity;BMP_temperature;BMP_pressure;BME280_temperature;BME280_humidity;BME280_pressure;Samples;Min_cycle;Max_cycle;Signal;HPM_P1;HPM_P2
2022/04/09 00:00:23;;;;;;;1.15;0.30;;;;;;;5.77;68.08;100613.91;4998140;28;96884;-34
2022/04/09 00:02:49;;;;;;;1.60;0.20;;;;;;;5.73;68.02;100613.16;4998748;28;97912;-34
2022/04/09 00:05:15;;;;;;;0.00;0.00;;;;;;;5.75;68.02;100623.84;4999423;28;97305;-34
2022/04/09 00:07:49;;;;;;;1.63;0.35;;;;;;;5.78;67.97;100639.81;4998916;28;96927;-34
2022/04/09 00:10:15;;;;;;;0.30;0.10;;;;;;;5.78;67.74;100638.97;4999134;28;96855;-34
2022/04/09 00:12:45;;;;;;;1.23;0.30;;;;;;;5.78;67.76;100655.97;4997415;28;100943;-34
2022/04/09 00:15:11;;;;;;;5.25;0.55;;;;;;;5.72;67.95;100654.44;4998761;28;99166;-34
2022/04/09 00:17:42;;;;;;;0.08;0.08;;;;;;;5.61;69.51;100662.09;4981300;28;96730;-34
2022/04/09 00:20:08;;;;;;;0.75;0.20;;;;;;;5.62;69.13;100660.25;4981697;28;96867;-34
2022/04/09 00:22:34;;;;;;;0.32;0.32;;;;;;;5.63;69.29;100656.66;4997146;28;102786;-34
2022/04/09 00:25:00;;;;;;;4.78;0.60;;;;;;;5.59;69.37;100649.66;4998476;28;99240;-34
2022/04/09 00:27:26;;;;;;;3.97;0.15;;;;;;;5.58;69.48;100664.00;4997269;28;96495;-34
2022/04/09 00:29:52;;;;;;;0.35;0.35;;;;;;;5.60;70.10;100667.50;4998922;28;96794;-34
2022/04/09 00:32:18;;;;;;;0.93;0.40;;;;;;;5.49;69.58;100644.69;4998568;28;97902;-34
2022/04/09 00:34:43;;;;;;;3.60;0.45;;;;;;;5.60;69.80;100675.56;4998382;28;99071;-34
2022/04/09 00:37:08;;;;;;;1.60;0.47;;;;;;;5.51;70.01;100674.19;4997799;28;111669;-34
2022/04/09 00:39:34;;;;;;;0.57;0.15;;;;;;;5.54;70.56;100682.97;4998609;28;96810;-34
2022/04/09 00:41:59;;;;;;;0.82;0.17;;;;;;;5.52;69.79;100694.72;4997654;28;119251;-34
2022/04/09 00:44:24;;;;;;;0.30;0.17;;;;;;;5.38;70.00;100667.56;4998055;28;116270;-34
2022/04/09 00:46:50;;;;;;;0.05;0.03;;;;;;;5.43;69.85;100692.44;4998703;28;96492;-34
2022/04/09 00:49:17;;;;;;;0.20;0.15;;;;;;;5.45;69.63;100690.56;4998766;28;96710;-34
2022/04/09 00:51:44;;;;;;;0.73;0.35;;;;;;;5.45;69.42;100688.72;4997453;28;98991;-34
2022/04/09 00:54:14;;;;;;;1.15;0.55;;;;;;;5.41;69.04;100691.59;4996569;28;100995;-34
2022/04/09 00:56:41;;;;;;;6.15;0.45;;;;;;;5.47;69.00;100700.28;4997252;28;96705;-34
2022/04/09 00:59:10;;;;;;;0.00;0.00;;;;;;;5.46;68.89;100700.38;4997318;28;96802;-34
2022/04/09 01:01:37;;;;;;;2.45;0.45;;;;;;;5.42;69.15;100694.25;4996766;28;100793;-34
2022/04/09 01:04:11;;;;;;;3.50;0.52;;;;;;;5.43;68.95;100705.84;4996315;28;101182;-34
2022/04/09 01:06:38;;;;;;;0.95;0.28;;;;;;;5.48;69.09;100710.09;4996966;28;96809;-34
2022/04/09 01:09:05;;;;;;;0.00;0.00;;;;;;;5.53;69.35;100715.28;4997326;28;96865;-34
2022/04/09 01:11:32;;;;;;;0.65;0.20;;;;;;;5.49;69.34;100714.53;4996564;28;101057;-34
2022/04/09 01:13:57;;;;;;;0.52;0.13;;;;;;;5.53;70.05;100720.66;4979784;28;100932;-34
2022/04/09 01:16:24;;;;;;;1.02;0.32;;;;;;;5.47;69.20;100721.78;4997891;28;96566;-34
2022/04/09 01:18:49;;;;;;;0.30;0.13;;;;;;;5.49;69.39;100732.47;4997055;28;96826;-34
2022/04/09 01:21:15;;;;;;;7.05;0.60;;;;;;;5.46;69.15;100722.72;4997960;28;97420;-34
2022/04/09 01:23:40;;;;;;;0.77;0.35;;;;;;;5.51;69.11;100739.53;4996913;28;126332;-34
2022/04/09 01:26:06;;;;;;;3.40;0.40;;;;;;;5.51;69.06;100747.59;4997762;28;105134;-34
2022/04/09 01:28:32;;;;;;;2.42;0.35;;;;;;;5.44;69.36;100738.03;4998274;28;96699;-34
2022/04/09 01:30:57;;;;;;;0.20;0.20;;;;;;;5.50;69.22;100753.88;4997689;28;97424;-34
2022/04/09 01:33:23;;;;;;;0.10;0.10;;;;;;;5.48;69.18;100753.09;4997940;28;97850;-34
2022/04/09 01:35:58;;;;;;;1.83;0.32;;;;;;;5.43;69.37;100755.06;4996616;28;96667;-34
2022/04/09 01:38:23;;;;;;;0.93;0.20;;;;;;;5.46;69.48;100763.03;4998043;28;96824;-34
2022/04/09 01:40:49;;;;;;;1.45;0.57;;;;;;;5.42;69.13;100758.72;4996895;28;105162;-34
2022/04/09 01:43:15;;;;;;;1.50;0.47;;;;;;;5.47;69.69;100783.56;4997202;28;99128;-34
2022/04/09 01:45:40;;;;;;;0.43;0.20;;;;;;;5.41;69.94;100773.09;4997987;28;96600;-34
2022/04/09 01:48:06;;;;;;;2.40;0.60;;;;;;;5.43;69.90;100786.44;4997850;28;96852;-34
2022/04/09 01:50:32;;;;;;;0.30;0.17;;;;;;;5.42;70.36;100788.25;4997027;28;99960;-34
2022/04/09 01:52:58;;;;;;;0.77;0.08;;;;;;;5.44;69.28;100790.88;4996128;28;99584;-34
2022/04/09 01:55:23;;;;;;;0.00;0.00;;;;;;;5.43;67.99;100795.38;4997118;28;96458;-34
2022/04/09 01:57:49;;;;;;;0.13;0.00;;;;;;;5.48;67.60;100806.81;4998283;28;96777;-34
2022/04/09 02:00:16;;;;;;;0.47;0.28;;;;;;;5.46;67.92;100800.63;4997298;28;96631;-34
2022/04/09 02:02:42;;;;;;;0.00;0.00;;;;;;;5.44;67.67;100788.19;4995675;28;101793;-34
2022/04/09 02:05:20;;;;;;;0.47;0.00;;;;;;;5.47;67.08;100804.19;4995760;28;96974;-34
2022/04/09 02:07:47;;;;;;;0.10;0.10;;;;;;;5.38;66.78;100792.00;4997040;28;96849;-34
2022/04/09 02:10:14;;;;;;;0.13;0.05;;;;;;;5.43;66.64;100798.03;4997135;28;97907;-34
2022/04/09 02:12:40;;;;;;;0.47;0.25;;;;;;;5.43;67.35;100806.09;4995729;28;100809;-34
2022/04/09 02:15:08;;;;;;;1.77;0.10;;;;;;;5.35;67.05;100791.25;4996163;28;96555;-34
2022/04/09 02:17:35;;;;;;;0.25;0.05;;;;;;;5.39;67.41;100793.75;4996058;28;96810;-34
2022/04/09 02:20:02;;;;;;;0.68;0.35;;;;;;;5.39;67.64;100811.69;4996836;28;99393;-34
2022/04/09 02:22:33;;;;;;;2.00;0.08;;;;;;;5.35;67.60;100802.00;4995856;28;100649;-34
2022/04/09 02:24:58;;;;;;;0.13;0.07;;;;;;;5.27;67.45;100808.56;4997651;28;96637;-34
2022/04/09 02:27:24;;;;;;;0.00;0.00;;;;;;;5.38;68.36;100836.78;4996434;28;109650;-34
2022/04/09 02:29:49;;;;;;;0.35;0.28;;;;;;;5.36;68.34;100830.59;4995046;28;128199;-33
2022/04/09 02:32:14;;;;;;;0.50;0.22;;;;;;;5.35;68.09;100835.09;4996014;28;126384;-34
2022/04/09 02:34:39;;;;;;;0.10;0.10;;;;;;;5.32;68.48;100840.59;4996670;28;101975;-34
2022/04/09 02:37:05;;;;;;;1.60;0.22;;;;;;;5.29;68.63;100838.03;4995607;28;100211;-34
2022/04/09 02:39:40;;;;;;;0.13;0.13;;;;;;;5.22;69.10;100841.88;4995354;28;101232;-34
2022/04/09 02:42:05;;;;;;;0.45;0.17;;;;;;;5.21;68.87;100841.00;4996820;28;97846;-34
2022/04/09 02:44:31;;;;;;;0.10;0.10;;;;;;;5.27;68.91;100848.84;4995915;28;96630;-34
2022/04/09 02:46:56;;;;;;;0.00;0.00;;;;;;;5.22;69.43;100848.16;4997675;28;96753;-34
2022/04/09 02:49:21;;;;;;;2.55;0.25;;;;;;;5.22;70.08;100850.84;4994379;28;126376;-34
2022/04/09 02:51:47;;;;;;;0.00;0.00;;;;;;;5.16;69.98;100844.81;4996658;28;97758;-34
2022/04/09 02:54:16;;;;;;;1.35;0.10;;;;;;;5.21;69.78;100859.81;4995438;28;111676;-34
2022/04/09 02:56:43;;;;;;;1.38;0.22;;;;;;;5.16;69.75;100850.19;4996867;28;96856;-34
2022/04/09 02:59:10;;;;;;;0.22;0.22;;;;;;;5.20;70.27;100859.91;4995400;28;101299;-34
2022/04/09 03:01:35;;;;;;;2.17;0.30;;;;;;;5.22;69.94;100866.06;4995009;28;101072;-34
2022/04/09 03:04:01;;;;;;;0.10;0.10;;;;;;;5.19;69.92;100860.81;4997091;28;97025;-34
2022/04/09 03:06:26;;;;;;;0.70;0.50;;;;;;;5.14;69.51;100862.81;4997768;28;96885;-34
2022/04/09 03:08:51;;;;;;;5.18;0.63;;;;;;;5.19;69.82;100872.41;4999299;28;103662;-34
2022/04/09 03:11:16;;;;;;;0.08;0.08;;;;;;;5.16;69.98;100866.31;4998845;28;124249;-34
2022/04/09 03:13:42;;;;;;;0.00;0.00;;;;;;;5.08;69.29;100862.13;4999250;28;112516;-34
2022/04/09 03:16:07;;;;;;;1.95;0.30;;;;;;;5.09;69.21;100860.28;4999942;28;96796;-34
2022/04/09 03:18:32;;;;;;;0.10;0.10;;;;;;;5.07;68.83;100856.78;4999083;28;99269;-34
2022/04/09 03:20:57;;;;;;;1.02;0.47;;;;;;;5.12;68.54;100876.28;4998768;28;127100;-34
2022/04/09 03:23:23;;;;;;;1.65;0.30;;;;;;;5.09;68.55;100871.91;4999330;28;111779;-34
2022/04/09 03:25:48;;;;;;;2.13;0.43;;;;;;;5.16;68.56;100885.09;4998957;28;111499;-34
2022/04/09 03:28:14;;;;;;;0.08;0.05;;;;;;;5.09;68.61;100885.31;4999378;28;98333;-34
2022/04/09 03:30:42;;;;;;;0.20;0.10;;;;;;;5.11;68.34;100893.34;4998093;28;100353;-34
2022/04/09 03:33:07;;;;;;;0.00;0.00;;;;;;;5.15;68.37;100894.06;4998514;28;96726;-34
2022/04/09 03:35:32;;;;;;;0.40;0.17;;;;;;;5.14;68.45;100892.34;4999853;28;100969;-34
2022/04/09 03:38:17;;;;;;;4.57;0.15;;;;;;;5.16;68.61;100904.75;4999441;28;97895;-34
2022/04/09 03:40:42;;;;;;;1.75;0.20;;;;;;;5.05;69.01;100883.72;4999220;28;98806;-34
2022/04/09 03:43:08;;;;;;;0.43;0.28;;;;;;;5.15;69.27;100904.81;4999464;28;96615;-34
2022/04/09 03:45:33;;;;;;;0.10;0.10;;;;;;;5.09;68.94;100898.75;4999933;28;96752;-34
2022/04/09 03:47:59;;;;;;;0.10;0.10;;;;;;;5.11;69.21;100901.38;4998268;28;97386;-34
2022/04/09 03:50:24;;;;;;;1.60;0.32;;;;;;;5.10;69.38;100905.88;4999217;28;97795;-34
2022/04/09 03:52:49;;;;;;;3.10;0.40;;;;;;;5.16;69.22;100917.31;4999386;28;96655;-34
2022/04/09 03:55:15;;;;;;;0.47;0.17;;;;;;;5.17;69.47;100919.94;4997461;28;106838;-34
2022/04/09 03:57:41;;;;;;;0.30;0.28;;;;;;;5.22;69.19;100935.88;4999164;28;97898;-34
2022/04/09 04:00:08;;;;;;;0.68;0.35;;;;;;;5.18;69.44;100927.06;4998386;28;97811;-34
2022/04/09 04:02:33;;;;;;;0.45;0.20;;;;;;;5.21;69.85;100934.13;4999579;28;96542;-34
2022/04/09 04:05:02;;;;;;;3.35;0.40;;;;;;;5.10;69.85;100913.94;4999518;28;96758;-34
2022/04/09 04:07:31;;;;;;;0.15;0.15;;;;;;;5.15;70.08;100929.88;4997394;28;99304;-34
2022/04/09 04:10:01;;;;;;;0.00;0.00;;;;;;;5.19;69.57;100944.91;4997469;28;99247;-34
2022/04/09 04:12:28;;;;;;;0.30;0.20;;;;;;;5.17;69.87;100944.09;4997957;28;96515;-34
2022/04/09 04:15:03;;;;;;;0.00;0.00;;;;;;;5.16;69.46;100947.72;4999338;28;96749;-34
2022/04/09 04:17:40;;;;;;;0.82;0.38;;;;;;;5.19;69.83;100961.03;4980353;28;102111;-34
2022/04/09 04:20:06;;;;;;;0.00;0.00;;;;;;;5.19;69.62;100957.47;4997305;28;100778;-34
2022/04/09 04:22:31;;;;;;;0.20;0.10;;;;;;;5.21;69.44;100966.34;4999044;28;96605;-34
2022/04/09 04:24:56;;;;;;;0.95;0.43;;;;;;;5.17;69.94;100965.56;4998835;28;106577;-34
2022/04/09 04:27:22;;;;;;;0.70;0.35;;;;;;;5.09;69.52;100955.13;4998401;28;109100;-34
2022/04/09 04:29:47;;;;;;;1.77;0.25;;;;;;;5.18;69.65;100970.03;4997565;28;126276;-34
2022/04/09 04:32:12;;;;;;;0.35;0.17;;;;;;;5.19;69.29;100973.59;4997604;28;113431;-34
2022/04/09 04:34:38;;;;;;;6.00;1.00;;;;;;;5.17;69.25;100975.44;4998761;28;96938;-34
2022/04/09 04:37:03;;;;;;;1.15;0.03;;;;;;;5.08;69.48;100966.81;4998523;28;97939;-34
2022/04/09 04:39:28;;;;;;;0.10;0.10;;;;;;;5.21;69.61;100987.84;4998374;28;99445;-34
2022/04/09 04:41:54;;;;;;;1.08;0.43;;;;;;;5.22;69.36;100997.63;4998399;28;104946;-34
2022/04/09 04:44:19;;;;;;;2.20;0.47;;;;;;;5.17;69.54;100992.44;4998103;28;108502;-34
2022/04/09 04:46:44;;;;;;;2.30;0.55;;;;;;;5.23;69.64;101010.13;4998516;28;97436;-34
2022/04/09 04:49:10;;;;;;;0.15;0.08;;;;;;;5.22;69.90;100993.16;4998579;28;98849;-34
2022/04/09 04:51:35;;;;;;;1.30;0.40;;;;;;;5.21;69.34;100994.06;4998245;28;97849;-34
2022/04/09 04:54:03;;;;;;;2.35;0.22;;;;;;;5.26;69.45;101016.25;4997070;28;96705;-34
2022/04/09 04:56:28;;;;;;;3.35;0.40;;;;;;;5.24;69.37;101003.81;4997677;28;97935;-34
2022/04/09 04:58:54;;;;;;;4.13;0.43;;;;;;;5.31;69.31;101022.38;4998114;28;99471;-34
2022/04/09 05:01:20;;;;;;;4.47;0.32;;;;;;;5.31;69.42;101016.09;4998685;28;96601;-34
2022/04/09 05:03:45;;;;;;;4.43;0.55;;;;;;;5.30;70.53;101019.72;4998546;28;96791;-34
2022/04/09 05:06:10;;;;;;;1.73;0.43;;;;;;;5.32;70.18;101012.50;4998015;28;99811;-34
2022/04/09 05:08:36;;;;;;;0.30;0.20;;;;;;;5.32;70.50;101004.44;4997322;28;113596;-34
2022/04/09 05:11:01;;;;;;;5.25;0.45;;;;;;;5.31;70.24;101002.66;4998316;28;96710;-34
2022/04/09 05:13:26;;;;;;;1.15;0.40;;;;;;;5.32;70.88;101010.66;4998994;28;96778;-34
2022/04/09 05:15:52;;;;;;;0.75;0.30;;;;;;;5.30;70.74;101009.84;4998148;28;97300;-34
2022/04/09 05:18:17;;;;;;;2.63;0.35;;;;;;;5.31;70.91;101016.09;4997867;28;97807;-34
2022/04/09 05:20:42;;;;;;;1.20;0.63;;;;;;;5.34;71.55;101010.63;4997851;28;96499;-34
2022/04/09 05:23:08;;;;;;;3.67;0.63;;;;;;;5.39;70.59;101015.81;4997939;28;100472;-34
2022/04/09 05:25:33;;;;;;;1.50;0.30;;;;;;;5.35;71.06;101020.44;4997751;28;97843;-34
2022/04/09 05:28:08;;;;;;;11.15;1.05;;;;;;;5.40;71.42;101028.31;4997469;28;99655;-34
2022/04/09 05:30:34;;;;;;;0.50;0.13;;;;;;;5.39;71.64;101040.88;4997178;28;96567;-34
2022/04/09 05:32:59;;;;;;;1.85;0.57;;;;;;;5.36;71.12;101035.59;4996655;28;96816;-34
2022/04/09 05:35:25;;;;;;;0.88;0.38;;;;;;;5.33;71.37;101027.66;4997730;28;97849;-34
2022/04/09 05:37:51;;;;;;;1.23;0.73;;;;;;;5.41;71.48;101046.16;4997719;28;99098;-34
2022/04/09 05:40:17;;;;;;;0.73;0.30;;;;;;;5.39;71.62;101050.75;4998001;28;96559;-34
2022/04/09 05:42:42;;;;;;;1.25;0.65;;;;;;;5.49;71.39;101070.97;4997907;28;96849;-34
2022/04/09 05:45:09;;;;;;;1.65;0.60;;;;;;;5.45;71.06;101072.00;4996872;28;99298;-34
2022/04/09 05:47:41;;;;;;;0.75;0.30;;;;;;;5.46;71.46;101065.72;4995983;28;100852;-34
2022/04/09 05:50:08;;;;;;;1.08;0.35;;;;;;;5.48;71.25;101083.53;4996485;28;96581;-34
2022/04/09 05:52:33;;;;;;;1.35;0.80;;;;;;;5.52;71.71;101089.66;4996542;28;96769;-34
2022/04/09 05:54:59;;;;;;;0.32;0.28;;;;;;;5.53;71.54;101094.09;4997234;28;98004;-34
2022/04/09 05:57:24;;;;;;;6.75;0.63;;;;;;;5.54;71.29;101098.53;4997401;28;97858;-34
2022/04/09 05:59:49;;;;;;;1.65;0.57;;;;;;;5.53;71.09;101094.97;4997069;28;103577;-34
2022/04/09 06:02:15;;;;;;;1.25;0.22;;;;;;;5.54;71.43;101103.91;4997966;28;96827;-34
2022/04/09 06:04:40;;;;;;;0.50;0.30;;;;;;;5.56;70.85;101106.53;4997153;28;97922;-34
2022/04/09 06:07:05;;;;;;;2.50;0.57;;;;;;;5.50;70.75;101094.19;4996142;28;99197;-34
2022/04/09 06:09:31;;;;;;;0.22;0.10;;;;;;;5.54;71.17;101114.66;4996456;28;105057;-34
2022/04/09 06:11:56;;;;;;;0.30;0.20;;;;;;;5.51;70.84;101104.88;4997681;28;96706;-34
2022/04/09 06:14:21;;;;;;;0.38;0.20;;;;;;;5.51;71.03;101109.41;4997173;28;98099;-34
2022/04/09 06:16:48;;;;;;;1.65;0.90;;;;;;;5.49;71.30;101116.63;4996086;28;120967;-34
2022/04/09 06:19:13;;;;;;;0.73;0.60;;;;;;;5.56;70.87;101131.59;4996057;28;96517;-34
2022/04/09 06:21:38;;;;;;;6.55;1.02;;;;;;;5.53;70.50;101123.66;4997326;28;96799;-34
2022/04/09 06:24:04;;;;;;;2.97;0.30;;;;;;;5.56;70.90;101130.72;4997016;28;98076;-34
2022/04/09 06:26:30;;;;;;;0.40;0.25;;;;;;;5.51;70.89;101126.38;4997352;28;97895;-34
2022/04/09 06:28:55;;;;;;;2.00;0.82;;;;;;;5.50;71.17;101121.94;4997266;28;96485;-34
2022/04/09 06:31:20;;;;;;;0.20;0.20;;;;;;;5.54;71.16;101144.19;4997071;28;96697;-34
2022/04/09 06:33:46;;;;;;;0.17;0.17;;;;;;;5.56;71.19;101147.72;4996379;28;97932;-34
2022/04/09 06:36:11;;;;;;;3.30;0.30;;;;;;;5.67;70.72;101141.94;4996105;28;126325;-34
2022/04/09 06:38:36;;;;;;;0.65;0.40;;;;;;;5.80;70.97;101151.31;4997156;28;96492;-34
2022/04/09 06:41:02;;;;;;;1.27;0.32;;;;;;;5.94;70.22;101143.66;4998113;28;111295;-34
2022/04/09 06:43:28;;;;;;;0.63;0.28;;;;;;;6.14;69.67;101132.13;5000127;28;99229;-34
2022/04/09 06:45:53;;;;;;;0.45;0.38;;;;;;;6.36;69.38;101156.41;4998756;28;100571;-34
2022/04/09 06:48:18;;;;;;;0.90;0.57;;;;;;;6.37;69.39;101149.19;4997922;28;96632;-34
2022/04/09 06:50:44;;;;;;;0.20;0.17;;;;;;;6.34;69.13;101155.56;4997410;28;114000;-34
2022/04/09 06:53:09;;;;;;;2.03;0.68;;;;;;;6.26;69.68;101165.75;4997456;28;98952;-34
2022/04/09 06:55:35;;;;;;;1.88;0.47;;;;;;;6.16;69.94;101169.72;4997179;28;97265;-34
2022/04/09 06:58:02;;;;;;;0.00;0.00;;;;;;;6.03;70.38;101163.94;4997434;28;96569;-33
2022/04/09 07:00:28;;;;;;;0.85;0.55;;;;;;;6.05;70.75;101190.75;4996338;28;96817;-34
2022/04/09 07:02:53;;;;;;;0.50;0.35;;;;;;;5.98;71.05;101176.66;4997381;28;99248;-34
2022/04/09 07:05:18;;;;;;;5.90;0.40;;;;;;;5.94;70.43;101175.03;4996575;28;126867;-34
2022/04/09 07:07:50;;;;;;;0.60;0.40;;;;;;;5.99;70.74;101180.25;4996643;28;96879;-34
2022/04/09 07:10:15;;;;;;;0.82;0.30;;;;;;;6.12;70.52;101208.41;4995970;28;96773;-34
2022/04/09 07:12:41;;;;;;;2.55;0.38;;;;;;;6.32;69.72;101203.19;4995311;28;99430;-34
2022/04/09 07:15:07;;;;;;;0.20;0.20;;;;;;;6.54;69.17;101210.41;4996328;28;97291;-34
2022/04/09 07:17:32;;;;;;;0.43;0.28;;;;;;;6.73;68.88;101206.06;4995622;28;97089;-34
2022/04/09 07:20:05;;;;;;;3.80;0.47;;;;;;;6.97;68.50;101209.56;4997496;28;96735;-34
2022/04/09 07:22:33;;;;;;;0.52;0.22;;;;;;;6.86;68.13;101203.75;4996600;28;99363;-33
2022/04/09 07:24:58;;;;;;;2.60;0.50;;;;;;;6.73;68.21;101205.19;4996965;28;98832;-34
2022/04/09 07:27:43;;;;;;;7.47;0.57;;;;;;;6.59;69.09;101235.34;4996649;28;117032;-34
2022/04/09 07:30:12;;;;;;;3.97;0.50;;;;;;;6.50;69.39;101244.63;4994944;28;97083;-34
2022/04/09 07:32:38;;;;;;;0.00;0.00;;;;;;;6.32;69.93;101230.06;4995386;28;101087;-34
2022/04/09 07:35:04;;;;;;;2.72;0.47;;;;;;;6.26;69.67;101241.06;4995616;28;101341;-34
2022/04/09 07:37:30;;;;;;;0.08;0.05;;;;;;;6.12;70.15;101241.56;4995772;28;97755;-34
2022/04/09 07:39:55;;;;;;;0.98;0.35;;;;;;;6.14;70.18;101234.31;4997175;28;96777;-34
2022/04/09 07:42:22;;;;;;;0.57;0.17;;;;;;;6.08;70.57;101237.25;4996472;28;115689;-34
2022/04/09 07:44:48;;;;;;;0.45;0.30;;;;;;;6.12;70.67;101252.31;4995491;28;100876;-34
2022/04/09 07:47:13;;;;;;;0.75;0.55;;;;;;;6.12;71.37;101256.81;4995216;28;96601;-34
2022/04/09 07:49:39;;;;;;;0.22;0.13;;;;;;;6.10;71.39;101264.97;4997242;28;96728;-34
2022/04/09 07:52:04;;;;;;;4.22;0.50;;;;;;;6.06;73.07;101281.28;4995977;28;97883;-34
2022/04/09 07:54:31;;;;;;;0.30;0.13;;;;;;;6.02;71.56;101269.72;4996069;28;99432;-34
2022/04/09 07:56:56;;;;;;;0.50;0.15;;;;;;;5.97;71.73;101278.91;4996703;28;97795;-34
2022/04/09 07:59:22;;;;;;;0.20;0.08;;;;;;;5.90;71.48;101272.81;4978986;28;96794;-34
2022/04/09 08:01:47;;;;;;;0.00;0.00;;;;;;;5.88;71.14;101267.50;4996704;28;97269;-34
2022/04/09 08:04:13;;;;;;;0.10;0.10;;;;;;;5.88;70.59;101272.00;4994987;28;123379;-34
2022/04/09 08:06:38;;;;;;;0.00;0.00;;;;;;;5.85;70.86;101264.91;4995767;28;116768;-34
2022/04/09 08:09:04;;;;;;;0.00;0.00;;;;;;;5.86;70.50;101268.47;4996318;28;96890;-34
2022/04/09 08:11:29;;;;;;;0.17;0.10;;;;;;;5.89;69.71;101268.41;4995935;28;98055;-34
2022/04/09 08:14:04;;;;;;;1.08;0.20;;;;;;;6.29;69.74;101286.69;4996443;28;97888;-34
2022/04/09 08:16:29;;;;;;;0.55;0.28;;;;;;;6.61;68.99;101284.59;4996696;28;96569;-34
2022/04/09 08:18:55;;;;;;;0.00;0.00;;;;;;;6.89;67.73;101276.34;4995335;28;96862;-34
2022/04/09 08:21:20;;;;;;;0.00;0.00;;;;;;;7.39;67.78;101284.19;4996005;28;99454;-34
2022/04/09 08:23:47;;;;;;;4.82;0.30;;;;;;;7.69;66.73;101278.44;4996024;28;105378;-34
2022/04/09 08:26:13;;;;;;;0.10;0.10;;;;;;;8.15;66.04;101295.34;4995030;28;96693;-34
2022/04/09 08:28:38;;;;;;;0.65;0.20;;;;;;;8.62;65.68;101299.56;4996906;28;96843;-34
2022/04/09 08:31:03;;;;;;;1.25;0.45;;;;;;;8.97;65.00;101297.03;4995916;28;99293;-34
2022/04/09 08:33:29;;;;;;;0.25;0.25;;;;;;;8.71;65.52;101302.69;4995314;28;124523;-34
2022/04/09 08:35:54;;;;;;;8.63;0.52;;;;;;;8.42;65.97;101289.69;4995958;28;96498;-34
2022/04/09 08:38:20;;;;;;;0.70;0.30;;;;;;;8.35;66.35;101305.22;4996679;28;96857;-34
2022/04/09 08:40:46;;;;;;;5.75;0.93;;;;;;;8.22;66.41;101306.72;4995915;28;99864;-34
2022/04/09 08:43:11;;;;;;;1.42;0.55;;;;;;;8.48;65.89;101317.25;4994425;28;100882;-34
2022/04/09 08:45:40;;;;;;;4.15;0.60;;;;;;;8.88;65.41;101319.94;4996175;28;96650;-34
2022/04/09 08:48:07;;;;;;;1.00;0.50;;;;;;;8.97;64.30;101313.25;4995920;28;96807;-34
2022/04/09 08:50:33;;;;;;;1.83;0.73;;;;;;;8.78;64.67;101324.03;4994218;28;103073;-34
2022/04/09 08:53:05;;;;;;;0.95;0.55;;;;;;;8.80;64.48;101320.31;4978122;28;100864;-34
2022/04/09 08:55:30;;;;;;;0.43;0.32;;;;;;;8.57;64.75;101317.78;4994597;28;96801;-34
2022/04/09 08:57:56;;;;;;;1.60;0.63;;;;;;;8.54;63.97;101316.13;4995109;28;112223;-34
2022/04/09 09:00:21;;;;;;;0.93;0.60;;;;;;;8.58;64.97;101325.84;4995129;28;99066;-34
2022/04/09 09:02:51;;;;;;;8.05;0.73;;;;;;;8.91;64.19;101315.28;4994614;28;126435;-34
2022/04/09 09:05:40;;;;;;;0.20;0.13;;;;;;;9.35;62.77;101311.41;4994404;28;96742;-34
2022/04/09 09:08:07;;;;;;;1.30;0.70;;;;;;;9.76;62.11;101317.44;4994929;28;96887;-34
2022/04/09 09:10:32;;;;;;;1.60;0.40;;;;;;;10.00;61.83;101307.19;4994105;28;100774;-34
2022/04/09 09:13:09;;;;;;;3.20;0.57;;;;;;;10.30;59.49;101333.66;4995581;28;98324;-34
2022/04/09 09:15:52;;;;;;;0.22;0.20;;;;;;;10.50;58.87;101320.88;4994383;28;96598;-34
2022/04/09 09:18:22;;;;;;;2.13;0.50;;;;;;;10.34;57.81;101331.63;4994794;28;96753;-34
2022/04/09 09:20:49;;;;;;;1.38;0.50;;;;;;;10.11;60.13;101336.41;4993834;28;101049;-34
2022/04/09 09:23:26;;;;;;;1.63;0.52;;;;;;;10.40;59.03;101337.63;4993826;28;100954;-34
2022/04/09 09:25:54;;;;;;;1.10;0.57;;;;;;;10.43;59.86;101335.69;4995027;28;96801;-34
2022/04/09 09:28:23;;;;;;;1.35;0.38;;;;;;;10.52;58.37;101344.22;4994002;28;96941;-34
2022/04/09 09:30:49;;;;;;;0.45;0.28;;;;;;;10.30;58.25;101338.19;4993709;28;101302;-34
2022/04/09 09:33:14;;;;;;;0.57;0.40;;;;;;;10.09;58.95;101353.69;4995205;28;97846;-34
2022/04/09 09:35:59;;;;;;;2.10;0.60;;;;;;;10.33;58.49;101365.97;4995374;28;96472;-34
2022/04/09 09:38:29;;;;;;;1.42;0.35;;;;;;;10.83;57.31;101366.94;4994023;28;96849;-34
2022/04/09 09:40:55;;;;;;;3.53;0.55;;;;;;;11.34;57.76;101369.56;4993698;28;100900;-34
2022/04/09 09:43:22;;;;;;;1.50;0.50;;;;;;;11.30;56.27;101347.19;4993968;28;101201;-34
2022/04/09 09:45:48;;;;;;;1.95;0.55;;;;;;;11.49;55.29;101363.28;4993952;28;96578;-34
2022/04/09 09:48:23;;;;;;;1.08;0.40;;;;;;;11.69;54.76;101371.13;4993734;28;96625;-34
2022/04/09 09:50:49;;;;;;;0.85;0.40;;;;;;;11.03;54.50;101374.84;4994152;28;98886;-34
2022/04/09 09:53:14;;;;;;;3.40;0.57;;;;;;;11.19;56.34;101379.44;4995051;28;97417;-34
2022/04/09 09:55:44;;;;;;;1.58;0.52;;;;;;;11.56;56.45;101367.41;4994713;28;96555;-34
2022/04/09 09:58:16;;;;;;;1.38;0.45;;;;;;;11.85;53.99;101371.13;4993682;28;96829;-34
2022/04/09 10:00:45;;;;;;;1.23;0.60;;;;;;;12.00;53.73;101377.50;4994445;28;99262;-34
2022/04/09 10:03:13;;;;;;;0.75;0.35;;;;;;;11.33;54.13;101371.41;4993248;28;99591;-34
2022/04/09 10:05:39;;;;;;;3.75;0.65;;;;;;;11.25;55.24;101385.41;4993553;28;96683;-34
2022/04/09 10:08:06;;;;;;;0.45;0.30;;;;;;;11.39;55.29;101381.91;4993131;28;96947;-33
2022/04/09 10:10:34;;;;;;;0.22;0.13;;;;;;;11.17;54.99;101382.22;4993009;28;101378;-34
2022/04/09 10:13:02;;;;;;;0.63;0.45;;;;;;;11.21;55.41;101385.66;4993168;28;100801;-34
2022/04/09 10:15:28;;;;;;;1.08;0.35;;;;;;;11.60;55.80;101381.63;4993780;28;96565;-34
2022/04/09 10:17:56;;;;;;;0.40;0.30;;;;;;;11.54;54.04;101365.72;4995032;28;96699;-34
2022/04/09 10:20:27;;;;;;;2.15;0.40;;;;;;;11.04;52.91;101382.03;4992790;28;100843;-34
2022/04/09 10:22:57;;;;;;;1.23;0.40;;;;;;;11.58;54.15;101389.84;4994685;28;97343;-34
2022/04/09 10:25:25;;;;;;;0.15;0.10;;;;;;;11.98;52.35;101381.28;4993397;28;96677;-34
2022/04/09 10:27:53;;;;;;;1.25;0.20;;;;;;;12.44;50.23;101386.66;4994548;28;96845;-34
2022/04/09 10:30:19;;;;;;;0.57;0.47;;;;;;;12.00;52.33;101390.22;4993018;28;98025;-34
2022/04/09 10:32:53;;;;;;;0.30;0.28;;;;;;;11.44;50.74;101390.66;4994492;28;97855;-34
2022/04/09 10:35:30;;;;;;;5.13;0.77;;;;;;;11.16;50.82;101404.88;4993200;28;96735;-34
2022/04/09 10:38:12;;;;;;;0.65;0.32;;;;;;;11.36;50.50;101416.47;4993331;28;96739;-34
2022/04/09 10:41:03;;;;;;;2.33;0.25;;;;;;;12.15;52.09;101413.75;4992301;28;100797;-34
2022/04/09 10:43:29;;;;;;;0.35;0.32;;;;;;;12.69;49.82;101410.53;4994230;28;97856;-34
2022/04/09 10:46:00;;;;;;;0.35;0.35;;;;;;;12.58;49.15;101416.59;4994387;28;96450;-34
2022/04/09 10:48:33;;;;;;;1.40;0.40;;;;;;;12.60;48.64;101409.22;4994756;28;96504;-34
2022/04/09 10:51:04;;;;;;;5.82;0.75;;;;;;;12.89;49.50;101398.41;4992730;28;100701;-34
2022/04/09 10:53:32;;;;;;;0.82;0.40;;;;;;;13.08;49.67;101404.41;4992623;28;100951;-34
2022/04/09 10:56:25;;;;;;;1.88;0.93;;;;;;;12.68;49.10;101420.53;4976110;28;96838;-34
2022/04/09 10:59:09;;;;;;;0.00;0.00;;;;;;;12.76;48.18;101430.91;4994744;28;96642;-34
2022/04/09 11:01:46;;;;;;;2.88;0.60;;;;;;;13.06;50.90;101420.00;4994091;28;98026;-34
2022/04/09 11:04:27;;;;;;;0.98;0.40;;;;;;;12.99;48.24;101421.34;4993654;28;99363;-34
2022/04/09 11:07:15;;;;;;;2.17;0.45;;;;;;;13.33;47.99;101422.84;4993274;28;96520;-34
2022/04/09 11:09:48;;;;;;;0.63;0.35;;;;;;;12.74;49.90;101427.41;4994288;28;96524;-34
2022/04/09 11:12:14;;;;;;;2.22;0.47;;;;;;;13.07;49.84;101429.88;4992285;28;101348;-34
2022/04/09 11:14:43;;;;;;;0.85;0.32;;;;;;;13.30;48.25;101423.03;4993643;28;99267;-34
2022/04/09 11:17:17;;;;;;;0.95;0.55;;;;;;;12.71;48.01;101423.03;4994256;28;96581;-34
2022/04/09 11:19:43;;;;;;;0.80;0.47;;;;;;;12.65;49.82;101417.97;4994156;28;96694;-34
2022/04/09 11:22:09;;;;;;;2.70;0.40;;;;;;;13.03;47.93;101427.47;4993863;28;97951;-34
2022/04/09 11:24:38;;;;;;;2.25;0.28;;;;;;;13.35;46.92;101433.63;4994200;28;97905;-34
2022/04/09 11:27:04;;;;;;;1.48;0.60;;;;;;;12.66;47.14;101427.03;4992806;28;96754;-34
2022/04/09 11:29:38;;;;;;;1.70;0.35;;;;;;;12.18;49.65;101438.03;4996033;28;96551;-34